createdAt,value
2022-11-10T00:05:00.034Z,974.33
2022-11-10T00:15:00.027Z,974.45
2022-11-10T00:25:00.193Z,974.53
2022-11-10T00:35:00.403Z,974.48
2022-11-10T00:45:00.574Z,974.50
2022-11-10T00:55:00.766Z,974.64
2022-11-10T01:05:00.935Z,974.79
2022-11-10T01:15:01.149Z,974.85
2022-11-10T01:25:01.308Z,974.98
2022-11-10T01:35:01.643Z,975.20
2022-11-10T01:45:01.697Z,975.11
2022-11-10T01:55:01.940Z,975.28
2022-11-10T02:05:02.098Z,975.36
2022-11-10T02:15:02.296Z,975.53
2022-11-10T02:25:02.476Z,975.55
2022-11-10T02:35:02.689Z,975.72
2022-11-10T02:45:02.944Z,975.81
2022-11-10T02:55:03.039Z,975.94
2022-11-10T03:05:03.192Z,976.16
2022-11-10T03:15:03.508Z,976.31
2022-11-10T03:25:03.553Z,976.31
2022-11-10T03:35:03.788Z,976.48
2022-11-10T03:45:03.947Z,976.61
2022-11-10T03:55:04.149Z,976.76
2022-11-10T04:05:04.304Z,976.88
2022-11-10T04:15:04.488Z,976.81
2022-11-10T04:25:04.692Z,977.02
2022-11-10T04:35:04.948Z,977.02
2022-11-10T04:45:05.358Z,977.30
2022-11-10T04:55:05.396Z,977.58
2022-11-10T05:05:05.479Z,977.46
2022-11-10T05:15:05.694Z,977.65
2022-11-10T05:25:05.855Z,977.86
2022-11-10T05:35:06.082Z,977.88
2022-11-10T05:45:06.154Z,978.03
2022-11-10T05:55:06.437Z,978.21
2022-11-10T06:05:06.503Z,978.21
2022-11-10T06:15:06.733Z,978.25
2022-11-10T06:25:06.893Z,978.52
2022-11-10T06:35:07.130Z,978.84
2022-11-10T06:45:07.197Z,979.04
2022-11-10T06:55:07.465Z,979.24
2022-11-10T07:05:07.555Z,979.46
2022-11-10T07:15:07.796Z,979.75
2022-11-10T07:25:08.271Z,979.95
2022-11-10T07:35:08.271Z,980.07
2022-11-10T07:45:08.335Z,980.17
2022-11-10T07:55:08.824Z,980.28
2022-11-10T08:05:08.704Z,980.48
2022-11-10T08:15:08.931Z,980.57
2022-11-10T08:25:09.128Z,980.68
2022-11-10T08:35:09.345Z,980.77
2022-11-10T08:45:09.527Z,980.96
2022-11-10T08:55:09.757Z,980.98
2022-11-10T09:05:09.904Z,981.01
2022-11-10T09:15:10.140Z,981.04
2022-11-10T09:25:10.295Z,981.17
2022-11-10T09:35:10.505Z,981.27
2022-11-10T09:45:10.938Z,981.42
2022-11-10T09:55:10.815Z,981.56
2022-11-10T10:05:10.990Z,981.63
2022-11-10T10:15:11.196Z,981.77
2022-11-10T10:25:11.437Z,981.82
2022-11-10T10:35:11.539Z,981.75
2022-11-10T10:45:11.755Z,981.68
2022-11-10T10:55:12.060Z,981.80
2022-11-10T11:05:12.244Z,981.56
2022-11-10T11:15:12.344Z,981.49
2022-11-10T11:25:12.796Z,981.52
2022-11-10T11:35:12.874Z,981.63
2022-11-10T11:45:13.060Z,981.61
2022-11-10T11:55:13.043Z,981.60
2022-11-10T12:05:13.092Z,981.60
2022-11-10T12:15:13.219Z,981.49
2022-11-10T12:25:13.380Z,981.51
2022-11-10T12:35:13.576Z,981.30
2022-11-10T12:45:13.758Z,981.32
2022-11-10T12:55:13.969Z,981.24
2022-11-10T13:05:14.138Z,981.25
2022-11-10T13:27:15.211Z,981.45
2022-11-10T13:28:36.407Z,981.39
2022-11-10T13:32:42.606Z,981.48
2022-11-10T13:46:02.550Z,981.60
2022-11-10T13:52:50.215Z,981.65
2022-11-10T14:01:19.651Z,981.58
2022-11-10T14:15:27.341Z,981.75
